| Record Date MM/DD/YYYY | Record Julian Date NNN day of the year | Air Temperature Max (Degrees Fahrenheit F) | Time Max Air Temperature HH:MM:SS This is the time of max air temperature standard time. | Air Temperature Min (Degrees Fahrenheit F) | Time Min Air Temperature HH:MM:SS This is the time of min air temperature standard time. | Air Temperature Observed (Degrees Fahrenheit F) This is an instantaneous reading for air temperature at 7:00:00 standard time. | Relative Humidity Max (Percent) | Time Max Relative Humidity HH:MM:SS This is the time of max relative humidity standard time. | Relative Humidity Min (Percent) | Time Min Relative Humidity HH:MM:SS This is the time of min relative humidity standard time. | Relative Humidity Observed (Percent) This is an instantaneous reading at 7:00:00 standard time. | Precipitation (Inches n.nn) total rain fall that occurred for the day. | Pan Evaporation (Inches n.nn) total evaporation that occured for the day. | Wind Run (Miles) Wind travel for the day. | Wind Speed (Miles Per Hour) Resultant / Average speed for the day. | Wind Direction (Degrees) Resultant Direction for the day | Solar Radiation (Langley's) that occurred for the day. | Soil Temperature Max at 2 inch depth (Degrees Fahrenheit F) that occurred during the day. | Time Max Soil temperature at 2 inches HH:MM:SS This is the time of max 2 inch soil temperature standard time. | Soil Temperature Min at 2 inch depth (Degrees Fahrenheit F) that occurred during the day. | Time Min Soil temperature at 2 inches HH:MM:SS This is the time of min 2 inch soil temperature standard time. | Soil Temperature Observed at 2 inch depth (Degrees Fahrenheit F) This is an instantaneous reading 2 inch soil temperature at 7:00:00 standard time. | Soil Temperature Max at 4 inch depth (Degrees Fahrenheit F) that occurred during the day. | Time Max Soil temperature at 4 inches HH:MM:SS This is the time of max 4 inch soil temperature standard time. | Soil Temperature Min at 4 inch depth (Degrees Fahrenheit F) that occurred during the day. | Time Min Soil temperature at 4 inches HH:MM:SS This is the time of min 4 inch soil temperature standard time. | Soil Temperature Observed at 4 inch depth (Degrees Fahrenheit F) This is an instantaneous reading 4 inch soil temperature at 7:00:00 standard time. | DD50 Degree Days 50 Fahrenheit. | Adjusted DD50 Degree Days 50 Fahrenheit adjusted for latitude. | DD60 Degree Days 60 Fahrenheit. |
|---|---|---|---|---|---|---|---|---|---|---|---|---|---|---|---|---|---|---|---|---|---|---|---|---|---|---|---|---|---|---|
| 08/06/2026 | 218 | 97 | 14:13:00 | 66 | 5:02:00 | 77 | 97 | 6:28:05 | 38 | 14:39:03 | 87 | 0 | 38 | 1.6 | 187 | 535 | 89 | 14:33:01 | 79 | 5:55:03 | 80 | 87 | 15:37:03 | 80 | 6:47:03 | 80 | 31.5 | 26.97 | 21.5 | |
| 08/07/2026 | 219 | 96 | 15:00:04 | 70 | 4:54:03 | 77 | 97 | 6:08:02 | 49 | 15:54:05 | 87 | 0 | 34 | 1.4 | 160 | 475 | 88 | 13:56:03 | 80 | 6:43:05 | 81 | 86 | 16:35:03 | 81 | 7:31:02 | 81 | 33 | 26.94 | 23 | |
| 08/08/2026 | 220 | 96 | 14:15:01 | 71 | 5:11:05 | 81 | 97 | 6:00:02 | 50 | 13:59:03 | 84 | 0 | 33 | 1.4 | 324 | 454 | 89 | 14:53:02 | 81 | 6:19:03 | 81 | 87 | 15:15:00 | 81 | 7:10:01 | 81 | 33.5 | 26.91 | 23.5 | |
| 08/09/2026 | 221 | 97 | 16:47:02 | 70 | 5:03:00 | 77 | 97 | 5:59:00 | 49 | 15:28:03 | 87 | 0.21 | 38 | 1.6 | 7 | 555 | 89 | 14:35:01 | 80 | 6:19:04 | 81 | 87 | 16:09:02 | 81 | 7:23:00 | 81 | 33.5 | 26.87 | 23.5 | |
| 08/10/2026 | 222 | 97 | 15:52:02 | 71 | 5:12:04 | 78 | 97 | 5:54:04 | 49 | 15:52:03 | 92 | 0 | 31 | 1.3 | 128 | 495 | 89 | 13:05:02 | 81 | 6:33:05 | 81 | 87 | 16:26:04 | 82 | 7:03:05 | 82 | 34 | 26.84 | 24 | |
| 08/11/2026 | 223 | 96 | 16:17:04 | 72 | 5:23:02 | 80 | 97 | 6:09:03 | 50 | 16:11:03 | 85 | 0 | 48 | 2.0 | 262 | 590 | 90 | 15:02:00 | 82 | 6:26:05 | 82 | 88 | 16:16:01 | 82 | 7:15:00 | 82 | 34 | 26.81 | 24 | |
| 08/12/2026 | 224 | 98 | 15:26:02 | 72 | 5:08:03 | 79 | 97 | 6:06:05 | 45 | 15:04:03 | 88 | 0 | 45 | 1.9 | 267 | 550 | 89 | 15:02:05 | 81 | 6:23:05 | 81 | 87 | 15:44:03 | 82 | 7:08:03 | 82 | 35 | 26.78 | 25 | |
| 08/13/2026 | 225 | 100 | 16:14:01 | 74 | 5:27:05 | 82 | 96 | 6:03:02 | 45 | 16:15:01 | 84 | 0 | 49 | 2.1 | 253 | 588 | 90 | 15:19:02 | 82 | 6:36:01 | 82 | 88 | 16:17:04 | 83 | 7:14:02 | 83 | 37 | 26.75 | 27 | |
| 08/14/2026 | 226 | 98 | 15:09:01 | 73 | 23:43:05 | 80 | 95 | 2:54:04 | 43 | 16:40:04 | 86 | 0 | 47 | 1.9 | 297 | 551 | 90 | 15:44:04 | 82 | 6:07:02 | 82 | 88 | 16:29:04 | 83 | 7:09:03 | 83 | 35.5 | 26.71 | 25.5 | |
| 08/15/2026 | 227 | 100 | 15:23:05 | 70 | 5:17:04 | 81 | 97 | 5:59:05 | 35 | 16:38:01 | 79 | 0 | 50 | 2.1 | 319 | 590 | 89 | 15:05:03 | 81 | 6:04:05 | 81 | 88 | 16:05:02 | 82 | 6:55:03 | 82 | 35 | 26.68 | 25 | |
| 08/16/2026 | 228 | 102 | 12:51:02 | 72 | 5:11:00 | 79 | 97 | 6:04:04 | 45 | 12:53:02 | 87 | 0 | 46 | 1.9 | 250 | 518 | 89 | 14:10:04 | 81 | 6:09:02 | 81 | 87 | 15:34:01 | 82 | 6:53:00 | 82 | 37 | 26.65 | 27 | |
| 08/17/2026 | 229 | 100 | 12:50:03 | 74 | 5:30:00 | 80 | 94 | 5:56:01 | 45 | 16:50:05 | 82 | 0 | 57 | 2.4 | 253 | 471 | 88 | 13:09:01 | 82 | 6:24:02 | 82 | 87 | 16:54:00 | 83 | 7:22:02 | 83 | 37 | 26.62 | 27 | |
| 08/18/2026 | 230 | 101 | 15:55:03 | 74 | 4:24:03 | 81 | 92 | 4:28:03 | 38 | 15:02:02 | 81 | 0 | 77 | 3.2 | 292 | 566 | 89 | 14:34:01 | 82 | 6:03:01 | 82 | 87 | 16:43:03 | 83 | 7:01:00 | 83 | 37.5 | 26.58 | 27.5 | |
| 08/19/2026 | 231 | 99 | 13:15:00 | 72 | 4:43:01 | 79 | 95 | 5:39:00 | 48 | 13:42:02 | 88 | 0 | 58 | 2.4 | 246 | 446 | 89 | 13:36:04 | 81 | 6:25:04 | 81 | 87 | 14:31:03 | 82 | 7:08:03 | 82 | 35.5 | 26.55 | 25.5 | |
| 08/20/2026 | 232 | 101 | 17:01:02 | 71 | 23:35:00 | 78 | 94 | 3:29:03 | 40 | 17:01:04 | 88 | 0.1 | 65 | 2.7 | 256 | 510 | 90 | 14:05:03 | 81 | 5:45:01 | 81 | 88 | 15:16:03 | 82 | 7:16:01 | 82 | 36 | 26.52 | 26 | |
| 08/21/2026 | 233 | 99 | 13:23:04 | 70 | 0:46:01 | 74 | 94 | 23:28:05 | 48 | 13:54:02 | 91 | 0.02 | 49 | 2.0 | 231 | 425 | 89 | 14:58:00 | 81 | 6:19:02 | 81 | 87 | 15:34:02 | 82 | 7:06:03 | 82 | 34.5 | 26.48 | 24.5 | |
| 08/22/2026 | 234 | 99 | 15:25:00 | 70 | 3:58:01 | 76 | 96 | 4:29:02 | 40 | 13:38:04 | 88 | 0 | 40 | 1.7 | 305 | 572 | 89 | 14:54:00 | 80 | 6:40:01 | 80 | 87 | 17:00:01 | 81 | 7:01:03 | 81 | 34.5 | 26.45 | 24.5 | |
| 08/23/2026 | 235 | 96 | 15:17:00 | 73 | 23:47:01 | 77 | 95 | 23:55:03 | 48 | 15:18:01 | 86 | 0 | 51 | 2.1 | 18 | 493 | 89 | 14:45:03 | 81 | 6:42:05 | 81 | 87 | 15:56:04 | 82 | 7:52:04 | 82 | 34.5 | 26.42 | 24.5 | |
| 08/24/2026 | 236 | 86 | 9:02:03 | 72 | 5:42:04 | 76 | 96 | 5:53:01 | 75 | 8:28:04 | 91 | 0.03 | 52 | 2.2 | 311 | 257 | 84 | 16:42:05 | 81 | 6:15:04 | 81 | 84 | 0:00:00 | 82 | 6:54:04 | 82 | 29 | 26.38 | 19 | |
| 08/25/2026 | 237 | 94 | 16:21:04 | 71 | 2:24:00 | 75 | 96 | 2:35:03 | 54 | 16:22:01 | 90 | 0 | 58 | 2.4 | 324 | 512 | 87 | 15:17:04 | 79 | 6:11:05 | 79 | 86 | 16:11:03 | 80 | 6:46:01 | 80 | 32.5 | 26.35 | 22.5 | |
| 08/26/2026 | 238 | 98 | 14:04:03 | 72 | 20:01:00 | 79 | 97 | 6:30:05 | 40 | 14:19:01 | 86 | 0.03 | 63 | 2.6 | 327 | 477 | 88 | 14:37:02 | 80 | 6:21:02 | 80 | 86 | 15:50:01 | 81 | 6:52:03 | 81 | 35 | 26.31 | 25 | |
| 08/27/2026 | 239 | 86 | 17:30:04 | 72 | 3:23:00 | 73 | 97 | 23:56:00 | 71 | 15:47:01 | 96 | 0.2 | 37 | 1.5 | 284 | 251 | 85 | 15:56:05 | 80 | 6:45:02 | 80 | 84 | 17:08:03 | 81 | 8:37:03 | 81 | 29 | 26.28 | 19 | |
| 08/28/2026 | 240 | 95 | 13:15:05 | 68 | 23:59:01 | 74 | 98 | 6:23:01 | 48 | 13:02:04 | 96 | 0 | 40 | 1.7 | 3 | 457 | 89 | 13:34:05 | 79 | 6:36:03 | 79 | 86 | 14:22:01 | 80 | 7:07:05 | 80 | 31.5 | 26.25 | 21.5 | |
| 08/29/2026 | 241 | 96 | 12:47:03 | 64 | 5:37:00 | 71 | 98 | 6:21:01 | 43 | 12:48:03 | 96 | 0 | 25 | 1.1 | 77 | 495 | 87 | 15:26:00 | 77 | 6:33:00 | 77 | 85 | 16:53:03 | 79 | 7:09:01 | 79 | 30 | 26.21 | 20 | |
| 08/30/2026 | 242 | 95 | 14:51:02 | 69 | 5:27:04 | 78 | 97 | 6:16:01 | 48 | 14:47:04 | 89 | 0 | 37 | 1.5 | 110 | 529 | 88 | 14:29:00 | 79 | 6:33:05 | 79 | 86 | 16:00:00 | 80 | 7:20:05 | 80 | 32 | 26.18 | 22 | |
| 08/31/2026 | 243 | 98 | 14:29:00 | 69 | 5:50:05 | 78 | 98 | 6:15:02 | 46 | 14:29:02 | 86 | 0 | 37 | 1.5 | 94 | 510 | 89 | 14:47:01 | 79 | 6:36:04 | 79 | 87 | 16:14:00 | 80 | 7:19:04 | 80 | 33.5 | 26.14 | 23.5 | |
| 09/01/2026 | 244 | 99 | 14:34:00 | 70 | 5:34:04 | 80 | 97 | 6:20:01 | 42 | 14:55:05 | 84 | 0 | 33 | 1.4 | 107 | 529 | 89 | 15:06:03 | 80 | 6:38:00 | 80 | 87 | 16:21:05 | 81 | 7:25:05 | 81 | 34.5 | 26.11 | 24.5 | |
| 09/02/2026 | 245 | 100 | 13:15:03 | 71 | 5:34:03 | 78 | 97 | 6:17:04 | 42 | 13:10:02 | 87 | 0 | 32 | 1.4 | 148 | 427 | 89 | 13:50:03 | 80 | 6:26:03 | 80 | 87 | 15:48:04 | 81 | 7:15:03 | 81 | 35.5 | 26.08 | 25.5 | |
| 09/03/2026 | 246 | 99 | 11:44:05 | 71 | 5:20:02 | 78 | 97 | 6:21:03 | 44 | 11:47:00 | 87 | 0.01 | 37 | 1.6 | 186 | 407 | 88 | 12:33:02 | 80 | 6:39:00 | 80 | 86 | 17:15:03 | 81 | 7:14:00 | 81 | 35 | 26.04 | 25 | |
| 09/04/2026 | 247 | 99 | 11:57:00 | 73 | 4:53:05 | 77 | 96 | 6:08:02 | 46 | 13:01:01 | 88 | 0 | 46 | 1.9 | 268 | 393 | 88 | 13:40:00 | 81 | 5:55:00 | 81 | 86 | 16:24:02 | 81 | 7:05:01 | 81 | 36 | 26.01 | 26 | |
| Average | 97.23 | 70.9 | 77.77 | 96.27 | 46.8 | 87.53 | 0.02 | 45.1 | 487.6 | 88.5 | 80.43 | 80.53 | 86.67 | 81.37 | 81.37 | 34.07 | 26.5 | 24.07 | ||||||||||||
| Total | 0.6 | 1022 | 794.87 | 722 |